LPM weather

Lamap Airport
Lamap, Malampa, Vanuatu

Public forecast

Using degrees Celsius for public forecast. Weather courtesy of forecast.io.

METAR (pilot weather report)

Report is more than 6 hours old.

Retrieved 2019/05/29 19:00 UTC (27 days ago):

NVSL 291900Z NLI

TAF (pilot weather forecast)

Retrieved 2019/06/25 18:16 UTC (3 hours ago):

TAF NVSL 251600Z 2518/2618 10014KT 9999 SCT020 BKN040 PROB40 INTER 2518/2524 8000 SHRA BKN018